Chadron, Nebraska
Current Conditions -  °F | °C
As of 9:26 AM on Friday 31 Oct 2014 (Local Time) from KCDR Reporting Station
Scattered Clouds Scattered Clouds  
Wind Chill: 28°   Ceiling: Unl
Heat Index: 36°   Visibility: 9mi
Dew Point: 31°   Wind: 13mph
Humidity: 82%   Direction: 160°SSE
Pressure: 30.37"   Gusts: NA
Location:  42.83°N, 103°W
Report Text: KCDR 311526Z AUTO 16011KT 9SM SCT011 02/M01 A3037 RMK AO2 T00221006
Loading
Personal Weather Stations






























Interactive Weather Map
Tropical Storm Tracking
New forecast layout! Learn more

10-Day Weather Forecast

Advertisements
Track Severe Weather on mobile